createdAt,value
2019-04-07T02:55:21.847Z,5.80
2019-04-07T02:58:08.928Z,7.23
2019-04-07T03:00:55.679Z,8.03
2019-04-07T03:03:39.503Z,8.50
2019-04-07T03:06:42.790Z,6.43
2019-04-07T03:09:23.387Z,6.10
2019-04-07T03:12:14.889Z,8.67
2019-04-07T03:14:54.366Z,8.00
2019-04-07T03:17:52.759Z,8.20
2019-04-07T03:20:46.340Z,6.07
2019-04-07T03:23:53.299Z,9.50
2019-04-07T03:26:40.666Z,6.53
2019-04-07T03:29:29.051Z,7.03
2019-04-07T03:32:33.807Z,9.27
2019-04-07T03:35:22.752Z,7.87
2019-04-07T03:37:59.810Z,7.23
2019-04-07T03:40:41.188Z,6.53
2019-04-07T03:43:32.018Z,6.50
2019-04-07T03:46:08.556Z,8.60
2019-04-07T03:48:45.905Z,6.43
2019-04-07T03:51:34.005Z,5.70
2019-04-07T03:54:16.665Z,7.47
2019-04-07T03:56:56.565Z,9.40
2019-04-07T03:59:58.070Z,7.87
2019-04-07T04:02:50.567Z,5.70
2019-04-07T04:05:37.649Z,5.97
2019-04-07T04:08:12.680Z,6.07
2019-04-07T04:10:54.254Z,13.10
2019-04-07T04:13:44.953Z,8.20
2019-04-07T04:16:25.762Z,15.00
2019-04-07T04:18:54.997Z,8.20
2019-04-07T04:21:24.320Z,10.20
2019-04-07T04:23:53.838Z,8.73
2019-04-07T04:26:23.763Z,6.10
2019-04-07T04:28:53.066Z,6.13
2019-04-07T04:31:23.407Z,6.93
2019-04-07T04:33:53.410Z,8.03
2019-04-07T04:36:24.027Z,7.97
2019-04-07T04:38:54.107Z,9.03
2019-04-07T04:41:23.493Z,7.77
2019-04-07T04:43:53.561Z,6.83
2019-04-07T04:46:23.643Z,9.00
2019-04-07T04:48:53.165Z,8.13
2019-04-07T04:51:22.132Z,9.23
2019-04-07T04:53:51.763Z,8.57
2019-04-07T04:56:22.757Z,10.43
2019-04-07T04:58:53.151Z,8.57
2019-04-07T05:01:23.019Z,7.00
2019-04-07T05:03:52.533Z,10.40
2019-04-07T05:06:21.727Z,9.07
2019-04-07T05:08:51.159Z,16.40
2019-04-07T05:11:21.169Z,9.70
2019-04-07T05:13:50.181Z,8.60
2019-04-07T05:16:19.784Z,8.97
2019-04-07T05:18:49.357Z,7.07
2019-04-07T05:21:18.587Z,10.50
2019-04-07T05:23:48.050Z,8.90
2019-04-07T05:26:17.843Z,8.50
2019-04-07T05:28:48.249Z,7.20
2019-04-07T05:31:17.826Z,11.30
2019-04-07T05:33:47.434Z,8.43
2019-04-07T05:36:16.820Z,9.87
2019-04-07T05:38:46.665Z,9.10
2019-04-07T05:41:15.712Z,10.40
2019-04-07T05:43:44.956Z,12.40
2019-04-07T05:46:14.811Z,13.77
2019-04-07T05:48:44.552Z,8.73
2019-04-07T05:51:13.581Z,11.80
2019-04-07T05:53:46.426Z,17.70
2019-04-07T05:56:13.750Z,8.90
2019-04-07T05:58:43.902Z,8.93
2019-04-07T06:01:14.047Z,11.00
2019-04-07T06:03:43.643Z,10.70
2019-04-07T06:06:13.452Z,7.90
2019-04-07T06:08:42.871Z,12.37
2019-04-07T06:11:12.591Z,8.20
2019-04-07T06:13:43.872Z,8.83
2019-04-07T06:16:13.090Z,11.43
2019-04-07T06:18:43.360Z,8.43
2019-04-07T06:21:15.335Z,8.80
2019-04-07T06:23:43.268Z,7.87
2019-04-07T06:26:13.060Z,8.33
2019-04-07T06:28:43.583Z,7.37
2019-04-07T06:31:14.012Z,14.33
2019-04-07T06:33:43.633Z,10.20
2019-04-07T06:36:13.291Z,10.27
2019-04-07T06:38:46.484Z,7.43
2019-04-07T06:41:13.824Z,7.13
2019-04-07T06:43:43.127Z,11.90
2019-04-07T06:46:46.948Z,9.47
2019-04-07T06:49:22.830Z,10.50
2019-04-07T06:52:14.574Z,12.20
2019-04-07T06:54:57.140Z,11.07
2019-04-07T06:57:57.141Z,12.93
2019-04-07T07:01:01.342Z,10.13
2019-04-07T07:04:08.594Z,9.07
2019-04-07T07:06:53.597Z,11.73
2019-04-07T07:09:42.680Z,8.27
2019-04-07T07:12:35.982Z,10.77
2019-04-07T07:15:20.137Z,11.07
2019-04-07T07:18:11.368Z,12.93
2019-04-07T07:21:00.811Z,10.43
2019-04-07T07:23:32.173Z,12.40
2019-04-07T07:26:03.273Z,9.67
2019-04-07T07:28:33.781Z,8.57
2019-04-07T07:31:05.404Z,10.90
2019-04-07T07:33:34.460Z,11.40
2019-04-07T07:36:03.533Z,10.10
2019-04-07T07:38:33.516Z,17.73
2019-04-07T07:41:04.474Z,8.93
2019-04-07T07:43:34.211Z,12.27
2019-04-07T07:46:03.800Z,11.90
2019-04-07T07:48:33.304Z,15.30
2019-04-07T07:51:03.953Z,10.63
2019-04-07T07:53:33.074Z,12.90
2019-04-07T07:56:08.428Z,8.70
2019-04-07T07:58:36.004Z,9.50
2019-04-07T08:01:05.467Z,7.93
2019-04-07T08:03:35.178Z,9.07
2019-04-07T08:06:08.136Z,12.13
2019-04-07T08:08:36.200Z,8.67
2019-04-07T08:11:06.765Z,9.10
2019-04-07T08:13:42.264Z,8.90
2019-04-07T08:16:07.397Z,13.03
2019-04-07T08:18:39.394Z,21.10
2019-04-07T08:21:08.560Z,9.30
2019-04-07T08:23:39.022Z,12.77
2019-04-07T08:26:09.425Z,10.07
2019-04-07T08:28:40.690Z,10.10
2019-04-07T08:31:09.901Z,11.33
2019-04-07T08:33:38.946Z,8.20
2019-04-07T08:36:11.132Z,11.90
2019-04-07T08:38:40.018Z,8.87
2019-04-07T08:41:11.349Z,12.03
2019-04-07T08:43:40.914Z,9.07
2019-04-07T08:46:11.992Z,15.60
2019-04-07T08:48:41.171Z,7.37
2019-04-07T08:51:10.229Z,15.90
2019-04-07T08:53:43.503Z,7.43
2019-04-07T08:56:12.969Z,8.00
2019-04-07T14:59:24.283Z,15.53
2019-04-07T15:01:59.334Z,18.90
2019-04-07T15:04:31.887Z,19.47
2019-04-07T15:07:19.357Z,20.70
2019-04-07T15:09:54.550Z,18.73
2019-04-07T15:12:42.363Z,19.83
2019-04-07T15:15:12.046Z,16.37
2019-04-07T15:17:42.457Z,23.30
2019-04-07T15:20:14.498Z,24.10
2019-04-07T15:22:47.238Z,19.60
2019-04-07T15:25:16.331Z,19.80
2019-04-07T15:27:45.944Z,18.83
2019-04-07T15:30:16.706Z,19.63
2019-04-07T15:32:46.525Z,22.73
2019-04-07T15:35:16.522Z,27.33
2019-04-07T15:37:46.639Z,22.00
2019-04-07T15:40:16.310Z,22.43
2019-04-07T15:42:50.038Z,21.53
2019-04-07T15:45:16.779Z,21.23
2019-04-07T15:47:47.198Z,22.40
2019-04-07T15:50:16.762Z,24.97
2019-04-07T15:52:47.346Z,20.57
2019-04-07T15:55:16.889Z,22.23
2019-04-07T15:57:46.231Z,24.47
2019-04-07T16:00:16.935Z,24.73
2019-04-07T16:02:49.300Z,18.20
2019-04-07T16:05:18.208Z,22.17
2019-04-07T16:07:49.210Z,20.03
2019-04-07T16:10:21.993Z,22.87
2019-04-07T16:12:58.121Z,21.10
2019-04-07T16:15:27.192Z,18.27
2019-04-07T16:17:57.592Z,22.20
2019-04-07T16:20:32.409Z,19.70
2019-04-07T16:22:59.671Z,16.80
2019-04-07T16:25:29.235Z,18.67
2019-04-07T16:27:59.330Z,22.80
2019-04-07T16:30:29.253Z,18.80
2019-04-07T16:33:01.929Z,22.90
2019-04-07T16:35:29.877Z,15.80
2019-04-07T16:38:01.198Z,19.20
2019-04-07T16:40:30.561Z,17.10
2019-04-07T16:43:11.668Z,19.07
2019-04-07T16:45:31.730Z,23.70
2019-04-07T16:48:04.525Z,16.90
2019-04-07T16:50:33.208Z,18.30
2019-04-07T16:53:04.760Z,19.73
2019-04-07T16:55:37.213Z,16.67
2019-04-07T16:58:08.422Z,22.23
2019-04-07T17:00:39.713Z,17.77
2019-04-07T17:03:10.027Z,17.40
2019-04-07T17:05:39.884Z,19.73
2019-04-07T17:08:09.373Z,16.03
2019-04-07T17:10:39.161Z,18.60
2019-04-07T17:13:16.840Z,18.10
2019-04-07T17:15:41.776Z,18.90
2019-04-07T17:18:26.294Z,16.90
2019-04-07T17:20:56.348Z,16.90
2019-04-07T17:23:27.161Z,13.63
2019-04-07T17:25:57.007Z,17.93
2019-04-07T17:28:27.089Z,15.53
2019-04-07T17:30:58.212Z,16.33
2019-04-07T17:33:28.618Z,15.90
2019-04-07T17:36:00.326Z,18.57
2019-04-07T17:38:38.317Z,15.77
2019-04-07T17:41:09.200Z,19.90
2019-04-07T17:44:01.029Z,18.10
2019-04-07T17:46:47.634Z,19.10
2019-04-07T17:49:44.393Z,20.90
2019-04-07T17:52:31.686Z,21.10
2019-04-07T17:55:27.713Z,22.97
2019-04-07T17:58:18.982Z,18.97
2019-04-07T18:01:24.687Z,17.17
2019-04-07T18:04:16.217Z,21.20
2019-04-07T18:06:56.071Z,24.20
2019-04-07T18:09:33.088Z,20.93
2019-04-07T18:12:14.401Z,20.73
2019-04-07T18:15:18.764Z,19.77
2019-04-07T18:18:13.117Z,19.97
2019-04-07T18:20:59.613Z,18.57
2019-04-07T18:23:42.667Z,20.27
2019-04-07T18:26:20.792Z,18.13
2019-04-07T18:29:05.853Z,22.83
2019-04-07T18:31:43.757Z,20.60
2019-04-07T18:34:32.355Z,25.30
2019-04-07T18:37:29.435Z,27.40
2019-04-07T18:40:26.326Z,27.63
2019-04-07T18:43:19.268Z,20.13
2019-04-07T18:46:20.303Z,24.23
2019-04-07T18:49:05.120Z,20.07
2019-04-07T18:52:00.025Z,22.47
2019-04-07T18:54:51.120Z,24.73
2019-04-07T18:57:42.624Z,21.87
2019-04-07T19:00:30.190Z,25.77
2019-04-07T19:03:04.516Z,19.67
2019-04-07T19:05:46.181Z,20.33
2019-04-07T19:08:41.330Z,21.20
2019-04-07T19:11:28.611Z,23.80
2019-04-07T19:14:33.448Z,19.77
2019-04-07T19:17:05.873Z,21.43
2019-04-07T19:19:58.426Z,20.37
2019-04-07T19:22:34.798Z,26.50
2019-04-07T19:25:22.309Z,20.90
2019-04-07T19:28:18.920Z,21.93
2019-04-07T19:31:08.728Z,32.40
2019-04-07T19:33:58.997Z,28.63
2019-04-07T19:36:35.830Z,20.60
2019-04-07T19:39:30.833Z,20.20
2019-04-07T19:42:17.782Z,18.50
2019-04-07T19:45:15.505Z,20.23
2019-04-07T19:48:10.026Z,21.20
2019-04-07T19:51:10.002Z,26.73
2019-04-07T19:54:00.716Z,21.77
2019-04-07T19:56:54.879Z,22.33
2019-04-07T19:59:58.533Z,23.23
2019-04-07T20:02:47.219Z,27.87
2019-04-07T20:05:41.496Z,26.10
2019-04-07T20:08:34.932Z,20.57
2019-04-07T20:11:30.431Z,25.80
2019-04-07T20:14:19.836Z,25.10
2019-04-07T20:17:08.426Z,21.57
2019-04-07T20:19:59.922Z,21.93
2019-04-07T20:23:04.555Z,22.77
2019-04-07T20:26:01.813Z,24.07
2019-04-07T20:28:40.811Z,24.23
2019-04-07T20:31:29.922Z,25.47
2019-04-07T20:34:05.976Z,24.20
2019-04-07T20:36:57.703Z,22.83
2019-04-07T20:39:52.104Z,25.77
2019-04-07T20:42:35.342Z,22.67
2019-04-07T20:45:28.928Z,18.27
2019-04-07T20:48:15.338Z,22.40
2019-04-07T20:51:10.312Z,20.23
2019-04-07T20:53:48.089Z,20.73
2019-04-07T20:56:42.035Z,23.77
2019-04-07T21:05:21.959Z,21.03
2019-04-07T21:08:14.502Z,16.80
2019-04-07T21:11:08.071Z,22.87
2019-04-07T21:13:56.733Z,21.10
2019-04-07T21:16:33.891Z,19.30
2019-04-07T21:19:21.327Z,18.50
2019-04-07T21:22:12.470Z,20.40
2019-04-07T21:24:58.657Z,22.93
2019-04-07T21:27:40.829Z,19.50
2019-04-07T21:30:29.122Z,23.70
2019-04-07T21:33:26.954Z,20.67
2019-04-07T21:36:14.269Z,18.27
2019-04-07T21:38:58.279Z,18.33
2019-04-07T21:41:54.189Z,17.13
2019-04-07T21:45:02.787Z,19.70
2019-04-07T21:48:05.614Z,16.50
2019-04-07T21:51:14.270Z,18.37
2019-04-07T21:53:49.525Z,19.20
2019-04-07T21:56:45.222Z,23.27
2019-04-07T21:59:32.159Z,17.97
2019-04-07T22:02:35.765Z,21.93
2019-04-07T22:05:11.401Z,18.50
2019-04-07T22:08:13.064Z,18.27
2019-04-07T22:10:36.977Z,18.27
2019-04-07T22:13:07.073Z,20.47
2019-04-07T22:15:47.398Z,18.30
2019-04-07T22:18:09.959Z,19.30
2019-04-07T22:20:39.206Z,16.50
2019-04-07T22:23:09.911Z,20.67
2019-04-07T22:25:46.195Z,18.87
2019-04-07T22:28:15.517Z,17.53
2019-04-07T22:30:44.765Z,16.40
2019-04-07T22:33:14.440Z,17.70
2019-04-07T22:35:44.491Z,17.60
2019-04-07T22:38:14.984Z,26.57
2019-04-07T22:40:45.748Z,21.50
2019-04-07T22:43:17.818Z,20.37
2019-04-07T22:45:56.713Z,19.30
2019-04-07T22:48:23.548Z,19.50
2019-04-07T22:50:49.660Z,16.00
2019-04-07T22:53:22.550Z,20.63
2019-04-07T22:55:52.649Z,17.77
2019-04-07T22:58:23.012Z,16.80
2019-04-07T23:00:52.370Z,17.63
2019-04-07T23:03:22.295Z,21.40
2019-04-07T23:05:51.622Z,17.27
2019-04-07T23:08:20.931Z,14.80
2019-04-07T23:10:50.833Z,18.30
2019-04-07T23:13:20.320Z,21.67
2019-04-07T23:15:50.371Z,16.40
2019-04-07T23:18:20.857Z,14.50
2019-04-07T23:20:51.422Z,13.87
2019-04-07T23:23:20.604Z,16.43
2019-04-07T23:25:51.493Z,20.43
2019-04-07T23:28:21.294Z,14.70
2019-04-07T23:30:51.432Z,15.20
2019-04-07T23:33:22.301Z,17.27
2019-04-07T23:35:51.853Z,15.90
2019-04-07T23:38:21.863Z,14.87
2019-04-07T23:40:51.993Z,15.20
2019-04-07T23:43:21.617Z,13.70
2019-04-07T23:45:51.804Z,14.70
2019-04-07T23:48:21.150Z,17.23
2019-04-07T23:50:50.310Z,16.03
2019-04-07T23:53:36.773Z,15.33
2019-04-07T23:56:05.981Z,18.47
2019-04-07T23:58:35.687Z,14.67
